createdAt,value
2019-04-05T00:01:35.948Z,17.10
2019-04-05T00:04:07.167Z,19.93
2019-04-05T00:06:38.566Z,22.97
2019-04-05T00:09:28.316Z,24.97
2019-04-05T00:18:13.944Z,23.37
2019-04-05T00:20:45.768Z,24.20
2019-04-05T00:23:17.261Z,22.20
2019-04-05T00:25:48.400Z,20.80
2019-04-05T00:28:37.897Z,19.80
2019-04-05T00:40:58.893Z,15.97
2019-04-05T00:43:30.147Z,19.80
2019-04-05T00:52:38.523Z,20.90
2019-04-05T00:55:10.475Z,20.30
2019-04-05T00:57:41.979Z,17.87
2019-04-05T01:00:13.763Z,17.27
2019-04-05T01:02:45.192Z,19.60
2019-04-05T01:12:41.181Z,23.67
2019-04-05T01:28:13.860Z,25.50
2019-04-05T01:30:54.202Z,27.27
2019-04-05T01:43:02.702Z,20.27
2019-04-05T01:46:27.783Z,20.43
2019-04-05T01:58:38.165Z,23.30
2019-04-05T02:01:09.299Z,22.90
2019-04-05T02:03:40.833Z,21.83
2019-04-05T02:12:49.809Z,16.17
2019-04-05T02:18:45.584Z,16.40
2019-04-05T02:21:16.683Z,24.67
2019-04-05T02:23:48.147Z,27.07
2019-04-05T02:39:47.444Z,27.40
2019-04-05T02:54:59.472Z,22.20
2019-04-05T03:07:26.621Z,22.57
2019-04-05T03:20:01.261Z,25.23
2019-04-05T03:35:00.506Z,26.10
2019-04-05T03:37:31.878Z,24.37
2019-04-05T03:40:05.106Z,25.50
2019-04-05T03:49:14.177Z,24.77
2019-04-05T03:51:45.950Z,25.13
2019-04-05T04:01:05.451Z,26.57
2019-04-05T04:03:36.991Z,25.00
2019-04-05T04:06:10.300Z,27.43
2019-04-05T04:08:41.527Z,26.23
2019-04-05T04:11:13.019Z,27.07
2019-04-05T04:20:52.731Z,28.93
2019-04-05T04:23:29.319Z,27.33
2019-04-05T04:29:56.045Z,28.60
2019-04-05T04:45:20.887Z,29.17
2019-04-05T04:54:31.203Z,29.07
2019-04-05T05:03:34.298Z,27.97
2019-04-05T05:06:06.587Z,29.70
2019-04-05T05:08:38.116Z,29.50
2019-04-05T05:17:58.010Z,28.83
2019-04-05T05:26:59.121Z,27.63
2019-04-05T05:29:30.536Z,28.23
2019-04-05T05:32:01.947Z,27.50
2019-04-05T05:34:33.885Z,28.70
2019-04-05T05:50:42.231Z,30.10
2019-04-05T06:00:31.250Z,30.80
2019-04-05T06:06:15.993Z,30.93
2019-04-05T06:14:50.167Z,29.53
2019-04-05T06:26:48.628Z,28.97
2019-04-05T06:29:19.970Z,29.10
2019-04-05T06:31:51.612Z,31.47
2019-04-05T06:34:23.039Z,29.33
2019-04-05T06:36:54.511Z,29.00
2019-04-05T06:42:34.309Z,31.03
2019-04-05T06:45:06.707Z,28.73
2019-04-05T06:47:38.190Z,29.10
2019-04-05T06:50:09.309Z,30.77
2019-04-05T06:52:41.013Z,30.10
2019-04-05T06:55:12.399Z,27.53
2019-04-05T06:57:43.953Z,26.07
2019-04-05T07:00:15.777Z,29.27
2019-04-05T07:02:47.943Z,26.77
2019-04-05T07:05:37.104Z,28.30
2019-04-05T07:08:08.781Z,28.37
2019-04-05T07:17:23.785Z,29.47
2019-04-05T07:19:56.203Z,29.17
2019-04-05T07:22:38.619Z,29.47
2019-04-05T07:25:01.032Z,30.27
2019-04-05T07:54:35.877Z,22.77
2019-04-05T07:57:07.936Z,23.07
2019-04-05T07:59:39.557Z,23.50
2019-04-05T08:02:10.713Z,22.83
2019-04-05T08:08:39.625Z,21.23
2019-04-05T08:11:11.517Z,19.80
2019-04-05T08:13:47.045Z,18.57
2019-04-05T08:16:18.233Z,17.70
2019-04-05T08:22:00.411Z,13.80
2019-04-05T08:24:31.691Z,14.40
2019-04-05T08:27:03.010Z,15.03
2019-04-05T08:29:34.079Z,16.50
2019-04-05T08:32:14.590Z,16.80
2019-04-05T08:34:39.297Z,15.77
2019-04-05T08:37:11.165Z,15.70
2019-04-05T08:39:42.515Z,14.17
2019-04-05T08:42:13.859Z,15.20
2019-04-05T08:44:45.057Z,16.07
2019-04-05T08:47:16.885Z,15.10
2019-04-05T08:49:48.273Z,14.13
2019-04-05T08:52:20.398Z,16.50
2019-04-05T08:54:51.654Z,14.50
2019-04-05T09:00:40.411Z,14.83
2019-04-05T09:03:12.140Z,14.40
2019-04-05T09:05:45.266Z,13.00
2019-04-05T09:08:16.498Z,13.97
2019-04-05T09:10:49.293Z,15.10
2019-04-05T09:13:20.739Z,14.90
2019-04-05T09:19:23.400Z,13.33
2019-04-05T09:21:49.599Z,14.37
2019-04-05T09:31:11.167Z,13.40
2019-04-05T09:36:22.353Z,13.03
2019-04-05T09:38:56.548Z,12.73
2019-04-05T09:41:28.375Z,12.67
2019-04-05T09:43:59.756Z,13.20
2019-04-05T09:46:31.431Z,13.27
2019-04-05T09:49:02.983Z,11.40
2019-04-05T09:51:35.055Z,12.60
2019-04-05T09:57:50.168Z,13.07
2019-04-05T10:00:28.173Z,11.50
2019-04-05T10:03:18.259Z,11.50
2019-04-05T10:09:14.601Z,11.10
2019-04-05T10:11:45.747Z,12.63
2019-04-05T10:14:17.270Z,11.60
2019-04-05T10:16:48.677Z,11.60
2019-04-05T10:22:45.025Z,10.93
2019-04-05T10:32:16.747Z,9.60
2019-04-05T10:35:09.309Z,8.70
2019-04-05T10:44:28.175Z,9.20
2019-04-05T10:46:59.234Z,8.30
2019-04-05T10:49:31.003Z,8.63
2019-04-05T11:14:14.181Z,7.13
2019-04-05T11:16:57.779Z,7.03
2019-04-05T11:19:19.009Z,7.53
2019-04-05T11:21:52.280Z,6.90
2019-04-05T11:24:24.703Z,7.00
2019-04-05T11:26:56.273Z,6.40
2019-04-05T11:32:51.565Z,7.10
2019-04-05T11:35:22.830Z,6.60
2019-04-05T11:38:18.858Z,6.30
2019-04-05T11:40:59.238Z,6.20
2019-04-05T11:43:32.489Z,6.67
2019-04-05T11:46:04.179Z,5.17
2019-04-05T11:48:36.850Z,5.57
2019-04-05T11:54:30.749Z,6.00
2019-04-05T11:57:01.827Z,4.90
2019-04-05T11:59:35.184Z,5.50
2019-04-05T12:02:38.383Z,5.20
2019-04-05T12:05:13.964Z,5.23
2019-04-05T12:07:45.584Z,5.60
2019-04-05T12:10:19.473Z,5.87
2019-04-05T12:12:50.662Z,5.43
2019-04-05T12:15:22.600Z,5.43
2019-04-05T12:17:53.871Z,5.10
2019-04-05T12:20:25.189Z,4.90
2019-04-05T12:22:56.941Z,5.20
2019-04-05T12:25:40.131Z,4.90
2019-04-05T12:28:12.503Z,5.77
2019-04-05T12:30:46.025Z,4.90
2019-04-05T12:33:35.130Z,4.90
2019-04-05T12:39:19.411Z,4.30
2019-04-05T12:41:51.544Z,4.37
2019-04-05T12:44:47.998Z,4.23
2019-04-05T12:47:19.084Z,4.00
2019-04-05T12:49:50.741Z,3.40
2019-04-05T12:52:25.113Z,4.30
2019-04-05T12:54:55.951Z,4.30
2019-04-05T12:57:27.864Z,5.30
2019-04-05T12:59:59.893Z,4.40
2019-04-05T13:02:33.981Z,3.97
2019-04-05T13:05:04.542Z,4.70
2019-04-05T13:07:35.715Z,4.90
2019-04-05T13:10:07.243Z,4.67
2019-04-05T13:12:38.756Z,5.07
2019-04-05T13:15:16.852Z,4.60
2019-04-05T13:17:45.301Z,4.43
2019-04-05T13:20:16.926Z,4.27
2019-04-05T13:22:48.099Z,4.60
2019-04-05T13:25:19.395Z,4.90
2019-04-05T13:27:50.525Z,4.80
2019-04-05T13:30:21.912Z,4.53
2019-04-05T13:32:53.563Z,4.70
2019-04-05T13:35:25.449Z,4.80
2019-04-05T13:38:09.937Z,5.23
2019-04-05T13:40:41.359Z,4.80
2019-04-05T13:43:12.454Z,5.00
2019-04-05T13:45:43.739Z,4.17
2019-04-05T13:48:14.878Z,4.90
2019-04-05T13:50:46.446Z,4.70
2019-04-05T13:53:17.895Z,4.10
2019-04-05T13:55:49.982Z,4.83
2019-04-05T13:58:21.409Z,5.07
2019-04-05T14:00:52.751Z,4.63
2019-04-05T14:03:23.879Z,5.10
2019-04-05T14:05:55.493Z,4.40
2019-04-05T14:08:26.927Z,5.10
2019-04-05T14:10:58.857Z,4.60
2019-04-05T14:13:30.026Z,4.83
2019-04-05T14:16:01.520Z,4.77
2019-04-05T14:18:32.864Z,4.80
2019-04-05T14:21:04.480Z,5.10
2019-04-05T14:23:35.905Z,4.47
2019-04-05T14:26:07.712Z,5.23
2019-04-05T14:28:39.160Z,4.67
2019-04-05T14:31:10.479Z,5.30
2019-04-05T14:33:41.818Z,5.00
2019-04-05T14:36:13.261Z,5.70
2019-04-05T14:38:44.651Z,5.10
2019-04-05T14:41:16.093Z,5.80
2019-04-05T14:43:47.387Z,5.00
2019-04-05T14:46:18.891Z,5.20
2019-04-05T14:48:50.275Z,5.73
2019-04-05T14:51:21.791Z,5.37
2019-04-05T14:53:52.973Z,5.10
2019-04-05T14:56:24.397Z,5.07
2019-04-05T14:58:55.519Z,4.53
2019-04-05T15:01:27.003Z,5.00
2019-04-05T15:03:58.305Z,4.67
2019-04-05T15:06:29.895Z,5.43
2019-04-05T15:09:02.154Z,5.00
2019-04-05T15:11:35.675Z,4.70
2019-04-05T15:14:07.155Z,4.67
2019-04-05T15:16:39.089Z,4.83
2019-04-05T15:19:10.265Z,5.10
2019-04-05T15:21:44.768Z,5.60
2019-04-05T15:24:16.758Z,5.30
2019-04-05T15:26:49.448Z,4.97
2019-04-05T15:29:26.126Z,4.83
2019-04-05T15:31:58.232Z,5.30
2019-04-05T15:34:29.531Z,5.10
2019-04-05T15:37:02.191Z,4.97
2019-04-05T15:39:33.777Z,5.10
2019-04-05T15:42:05.473Z,5.07
2019-04-05T15:44:36.909Z,5.90
2019-04-05T15:47:08.497Z,4.80
2019-04-05T15:49:41.183Z,5.07
2019-04-05T15:52:18.571Z,4.90
2019-04-05T15:54:45.465Z,4.63
2019-04-05T15:57:17.243Z,5.07
2019-04-05T15:59:49.737Z,5.10
2019-04-05T16:02:21.982Z,5.23
2019-04-05T16:04:54.019Z,4.80
2019-04-05T16:07:25.481Z,4.70
2019-04-05T16:09:57.009Z,5.10
2019-04-05T16:12:28.651Z,5.20
2019-04-05T16:14:59.893Z,5.33
2019-04-05T16:17:31.337Z,4.97
2019-04-05T16:20:03.313Z,5.30
2019-04-05T16:22:36.232Z,4.57
2019-04-05T16:25:08.910Z,4.67
2019-04-05T16:27:41.440Z,4.80
2019-04-05T16:30:13.201Z,4.60
2019-04-05T16:32:44.866Z,4.90
2019-04-05T16:35:16.360Z,4.93
2019-04-05T16:37:48.069Z,5.40
2019-04-05T16:40:20.078Z,4.43
2019-04-05T16:43:01.685Z,4.23
2019-04-05T16:45:25.301Z,4.90
2019-04-05T16:47:57.060Z,4.73
2019-04-05T16:50:28.577Z,5.07
2019-04-05T16:52:59.968Z,4.90
2019-04-05T16:55:31.043Z,4.30
2019-04-05T16:58:02.467Z,3.90
2019-04-05T17:00:52.641Z,4.40
2019-04-05T17:03:24.177Z,4.43
2019-04-05T17:05:55.267Z,4.27
2019-04-05T17:08:27.200Z,4.47
2019-04-05T17:10:58.493Z,4.17
2019-04-05T17:13:31.543Z,3.53
2019-04-05T17:16:02.732Z,3.60
2019-04-05T17:18:34.552Z,3.60
2019-04-05T17:21:05.887Z,3.60
2019-04-05T17:23:37.454Z,3.23
2019-04-05T17:26:08.619Z,3.30
2019-04-05T17:28:40.173Z,3.23
2019-04-05T17:31:11.667Z,3.77
2019-04-05T17:33:43.073Z,3.20
2019-04-05T17:36:14.352Z,3.67
2019-04-05T17:38:45.969Z,3.10
2019-04-05T17:41:17.336Z,3.50
2019-04-05T17:43:49.079Z,3.40
2019-04-05T17:46:20.581Z,3.20
2019-04-05T17:48:52.567Z,3.37
2019-04-05T17:51:23.877Z,3.83
2019-04-05T17:53:55.181Z,3.80
2019-04-05T17:56:27.273Z,3.97
2019-04-05T17:58:59.249Z,3.87
2019-04-05T18:01:30.620Z,3.90
2019-04-05T18:04:02.055Z,3.67
2019-04-05T18:06:33.245Z,4.07
2019-04-05T18:09:05.781Z,4.17
2019-04-05T18:11:38.117Z,4.00
2019-04-05T18:14:09.664Z,4.20
2019-04-05T18:16:41.135Z,3.93
2019-04-05T18:19:12.889Z,4.17
2019-04-05T18:21:44.675Z,4.23
2019-04-05T18:24:16.404Z,4.37
2019-04-05T18:26:47.493Z,4.30
2019-04-05T18:29:19.788Z,3.87
2019-04-05T18:31:51.121Z,3.90
2019-04-05T18:34:22.741Z,3.97
2019-04-05T18:36:54.087Z,4.00
2019-04-05T18:39:34.227Z,8.77
2019-04-05T18:42:05.739Z,3.80
2019-04-05T18:44:37.099Z,5.30
2019-04-05T18:47:08.322Z,3.93
2019-04-05T18:49:39.634Z,3.73
2019-04-05T18:52:10.764Z,4.77
2019-04-05T18:54:42.318Z,4.73
2019-04-05T18:57:14.303Z,4.60
2019-04-05T18:59:47.347Z,4.00
2019-04-05T19:02:18.515Z,4.27
2019-04-05T19:04:49.779Z,4.13
2019-04-05T19:07:22.493Z,4.30
2019-04-05T19:09:53.930Z,5.00
2019-04-05T19:12:25.035Z,4.80
2019-04-05T19:14:57.721Z,5.20
2019-04-05T19:17:29.269Z,6.90
2019-04-05T19:20:01.040Z,7.03
2019-04-05T19:22:32.366Z,6.50
2019-04-05T19:25:05.041Z,7.30
2019-04-05T19:27:36.507Z,7.43
2019-04-05T19:50:46.629Z,5.40
2019-04-05T19:53:17.837Z,4.77
2019-04-05T19:55:49.323Z,4.70
2019-04-05T19:58:21.651Z,5.13
2019-04-05T20:00:53.357Z,5.43
2019-04-05T20:03:25.569Z,4.93
2019-04-05T20:05:56.798Z,4.53
2019-04-05T20:08:27.915Z,5.80
2019-04-05T20:10:59.565Z,5.00
2019-04-05T20:13:30.811Z,5.13
2019-04-05T20:16:02.034Z,6.27
2019-04-05T20:18:33.175Z,6.67
2019-04-05T20:21:04.475Z,6.63
2019-04-05T20:23:42.941Z,5.87
2019-04-05T20:26:09.515Z,6.10
2019-04-05T20:28:40.813Z,6.93
2019-04-05T20:31:11.956Z,6.43
2019-04-05T20:33:44.497Z,6.20
2019-04-05T20:36:16.238Z,6.37
2019-04-05T20:39:01.455Z,6.40
2019-04-05T20:41:34.393Z,5.60
2019-04-05T20:44:07.135Z,6.10
2019-04-05T20:46:38.859Z,6.93
2019-04-05T20:49:11.993Z,7.10
2019-04-05T20:51:43.702Z,6.90
2019-04-05T20:54:24.192Z,7.17
2019-04-05T20:56:48.437Z,7.27
2019-04-05T20:59:20.181Z,9.07
2019-04-05T21:01:51.661Z,7.53
2019-04-05T21:07:20.255Z,7.23
2019-04-05T21:10:02.425Z,7.10
2019-04-05T21:13:13.025Z,7.50
2019-04-05T21:19:05.303Z,8.83
2019-04-05T21:36:02.541Z,7.20
2019-04-05T21:52:08.431Z,8.23
2019-04-05T21:54:48.753Z,9.20
2019-04-05T21:57:20.321Z,8.20
2019-04-05T21:59:56.534Z,9.23
2019-04-05T22:42:15.707Z,9.00
2019-04-05T23:00:54.782Z,8.50
2019-04-05T23:03:26.830Z,8.13
2019-04-05T23:12:23.339Z,9.80
2019-04-05T23:14:58.996Z,9.23
2019-04-05T23:17:30.523Z,9.20
2019-04-05T23:44:04.936Z,10.50
